createdAt,value
2023-03-03T00:00:10.196Z,100.00
2023-03-03T00:03:03.787Z,100.00
2023-03-03T00:05:50.806Z,100.00
2023-03-03T00:08:37.174Z,100.00
2023-03-03T00:11:23.493Z,100.00
2023-03-03T00:14:23.186Z,100.00
2023-03-03T00:17:21.856Z,100.00
2023-03-03T00:20:30.002Z,100.00
2023-03-03T00:23:35.310Z,100.00
2023-03-03T00:26:38.998Z,100.00
2023-03-03T00:29:37.423Z,100.00
2023-03-03T00:32:27.480Z,100.00
2023-03-03T00:35:24.566Z,100.00
2023-03-03T00:38:17.103Z,100.00
2023-03-03T00:41:11.381Z,100.00
2023-03-03T00:43:58.499Z,100.00
2023-03-03T00:46:44.907Z,100.00
2023-03-03T00:49:31.108Z,100.00
2023-03-03T00:52:19.059Z,100.00
2023-03-03T00:55:07.511Z,100.00
2023-03-03T00:57:54.086Z,100.00
2023-03-03T01:00:45.094Z,100.00
2023-03-03T01:03:34.431Z,100.00
2023-03-03T01:06:20.716Z,100.00
2023-03-03T01:09:06.908Z,100.00
2023-03-03T01:11:55.257Z,100.00
2023-03-03T01:14:42.437Z,100.00
2023-03-03T01:17:29.121Z,100.00
2023-03-03T01:20:16.798Z,100.00
2023-03-03T01:23:03.089Z,100.00
2023-03-03T01:25:49.634Z,100.00
2023-03-03T01:28:36.241Z,100.00
2023-03-03T01:31:22.748Z,100.00
2023-03-03T01:34:09.228Z,100.00
2023-03-03T01:36:55.412Z,100.00
2023-03-03T01:39:42.170Z,100.00
2023-03-03T01:42:30.048Z,100.00
2023-03-03T01:45:48.739Z,100.00
2023-03-03T01:48:42.946Z,100.00
2023-03-03T01:51:42.137Z,100.00
2023-03-03T01:54:39.367Z,100.00
2023-03-03T01:57:31.992Z,100.00
2023-03-03T02:00:19.739Z,100.00
2023-03-03T02:03:06.263Z,100.00
2023-03-03T02:05:55.686Z,100.00
2023-03-03T02:09:04.754Z,100.00
2023-03-03T02:11:54.711Z,100.00
2023-03-03T02:14:40.931Z,100.00
2023-03-03T02:17:27.509Z,100.00
2023-03-03T02:20:34.463Z,100.00
2023-03-03T02:23:38.405Z,100.00
2023-03-03T02:26:27.445Z,100.00
2023-03-03T02:29:19.172Z,100.00
2023-03-03T02:32:06.874Z,100.00
2023-03-03T02:34:53.534Z,100.00
2023-03-03T02:37:40.716Z,100.00
2023-03-03T02:40:31.696Z,100.00
2023-03-03T02:43:22.583Z,100.00
2023-03-03T02:46:08.914Z,100.00
2023-03-03T02:48:55.397Z,100.00
2023-03-03T02:51:42.507Z,100.00
2023-03-03T02:54:30.926Z,100.00
2023-03-03T02:57:18.264Z,100.00
2023-03-03T03:00:05.883Z,100.00
2023-03-03T03:02:52.388Z,100.00
2023-03-03T03:05:39.632Z,100.00
2023-03-03T03:08:26.376Z,100.00
2023-03-03T03:11:12.910Z,100.00
2023-03-03T03:13:59.587Z,100.00
2023-03-03T03:16:46.145Z,100.00
2023-03-03T03:19:32.579Z,100.00
2023-03-03T03:22:21.632Z,100.00
2023-03-03T03:25:08.936Z,100.00
2023-03-03T03:27:55.768Z,100.00
2023-03-03T03:30:44.098Z,100.00
2023-03-03T03:33:31.071Z,100.00
2023-03-03T03:36:17.798Z,100.00
2023-03-03T03:39:06.665Z,100.00
2023-03-03T03:41:55.819Z,100.00
2023-03-03T03:44:42.616Z,100.00
2023-03-03T03:47:29.034Z,100.00
2023-03-03T03:50:17.388Z,100.00
2023-03-03T03:53:05.929Z,100.00
2023-03-03T03:55:52.684Z,100.00
2023-03-03T03:58:41.558Z,100.00
2023-03-03T04:01:29.958Z,100.00
2023-03-03T04:04:17.445Z,100.00
2023-03-03T04:07:04.050Z,100.00
2023-03-03T04:09:51.006Z,100.00
2023-03-03T04:12:40.782Z,100.00
2023-03-03T04:15:31.546Z,100.00
2023-03-03T04:18:19.284Z,100.00
2023-03-03T04:21:06.605Z,100.00
2023-03-03T04:23:53.551Z,100.00
2023-03-03T04:26:40.381Z,100.00
2023-03-03T04:29:28.065Z,100.00
2023-03-03T04:32:14.913Z,100.00
2023-03-03T04:35:08.285Z,100.00
2023-03-03T04:37:57.898Z,100.00
2023-03-03T04:40:45.139Z,100.00
2023-03-03T04:43:32.594Z,100.00
2023-03-03T04:46:19.886Z,100.00
2023-03-03T04:49:09.788Z,100.00
2023-03-03T04:51:58.186Z,100.00
2023-03-03T04:54:44.562Z,100.00
2023-03-03T04:57:33.984Z,100.00
2023-03-03T05:00:20.649Z,100.00
2023-03-03T05:03:07.681Z,100.00
2023-03-03T05:05:54.525Z,100.00
2023-03-03T05:08:43.086Z,100.00
2023-03-03T05:11:29.387Z,100.00
2023-03-03T05:14:15.999Z,100.00
2023-03-03T05:17:04.432Z,100.00
2023-03-03T05:19:51.086Z,100.00
2023-03-03T05:22:37.429Z,100.00
2023-03-03T05:25:24.214Z,100.00
2023-03-03T05:28:10.694Z,100.00
2023-03-03T05:30:57.197Z,100.00
2023-03-03T05:33:43.470Z,100.00
2023-03-03T05:36:29.694Z,100.00
2023-03-03T05:39:16.096Z,100.00
2023-03-03T05:42:02.902Z,100.00
2023-03-03T05:44:49.275Z,100.00
2023-03-03T05:47:35.420Z,100.00
2023-03-03T05:50:23.068Z,100.00
2023-03-03T05:53:09.173Z,100.00
2023-03-03T05:55:55.652Z,100.00
2023-03-03T05:58:42.004Z,100.00
2023-03-03T06:01:29.268Z,100.00
2023-03-03T06:04:15.768Z,100.00
2023-03-03T06:07:02.091Z,100.00
2023-03-03T06:09:48.301Z,100.00
2023-03-03T06:12:35.205Z,100.00
2023-03-03T06:15:23.192Z,100.00
2023-03-03T06:18:09.674Z,100.00
2023-03-03T06:20:56.074Z,100.00
2023-03-03T06:23:42.580Z,100.00
2023-03-03T06:26:28.924Z,100.00
2023-03-03T06:29:15.874Z,100.00
2023-03-03T06:32:02.459Z,100.00
2023-03-03T06:34:49.097Z,100.00
2023-03-03T06:37:35.883Z,100.00
2023-03-03T06:40:22.230Z,100.00
2023-03-03T06:43:09.594Z,100.00
2023-03-03T06:45:55.799Z,100.00
2023-03-03T06:48:42.086Z,100.00
2023-03-03T06:51:35.072Z,100.00
2023-03-03T06:54:30.342Z,100.00
2023-03-03T06:57:32.001Z,100.00
2023-03-03T07:00:23.951Z,100.00
2023-03-03T07:03:19.281Z,100.00
2023-03-03T07:06:24.653Z,100.00
2023-03-03T07:09:26.768Z,100.00
2023-03-03T07:12:22.973Z,100.00
2023-03-03T07:15:09.158Z,100.00
2023-03-03T07:17:59.871Z,100.00
2023-03-03T07:20:46.234Z,100.00
2023-03-03T07:23:42.692Z,100.00
2023-03-03T07:26:33.282Z,100.00
2023-03-03T07:29:28.330Z,100.00
2023-03-03T07:32:39.965Z,100.00
2023-03-03T07:35:43.769Z,100.00
2023-03-03T07:38:45.354Z,100.00
2023-03-03T07:41:34.748Z,100.00
2023-03-03T07:44:26.179Z,100.00
2023-03-03T07:47:30.068Z,100.00
2023-03-03T07:50:22.751Z,100.00
2023-03-03T07:53:26.403Z,100.00
2023-03-03T07:56:29.596Z,100.00
2023-03-03T07:59:24.571Z,100.00
2023-03-03T08:02:37.807Z,100.00
2023-03-03T08:05:36.235Z,100.00
2023-03-03T08:08:33.209Z,100.00
2023-03-03T08:11:19.465Z,100.00
2023-03-03T08:14:16.460Z,100.00
2023-03-03T08:17:14.765Z,100.00
2023-03-03T08:20:01.212Z,100.00
2023-03-03T08:22:47.384Z,100.00
2023-03-03T08:25:33.655Z,100.00
2023-03-03T08:28:21.610Z,100.00
2023-03-03T08:31:18.469Z,100.00
2023-03-03T08:34:11.592Z,100.00
2023-03-03T08:36:58.487Z,100.00
2023-03-03T08:39:44.717Z,100.00
2023-03-03T08:42:31.457Z,100.00
2023-03-03T08:45:17.779Z,100.00
2023-03-03T08:48:06.166Z,100.00
2023-03-03T08:50:52.896Z,100.00
2023-03-03T08:53:39.440Z,100.00
2023-03-03T08:56:26.052Z,98.35
2023-03-03T08:59:13.492Z,98.88
2023-03-03T09:01:59.930Z,94.71
2023-03-03T09:04:46.497Z,93.82
2023-03-03T09:07:32.877Z,89.99
2023-03-03T09:10:27.258Z,87.82
2023-03-03T09:13:21.337Z,85.16
2023-03-03T09:16:13.927Z,84.19
2023-03-03T09:19:16.124Z,83.92
2023-03-03T09:22:18.718Z,82.81
2023-03-03T09:25:21.929Z,81.38
2023-03-03T09:28:30.380Z,79.33
2023-03-03T09:31:28.173Z,80.05
2023-03-03T09:34:24.141Z,78.95
2023-03-03T09:37:37.366Z,77.74
2023-03-03T09:40:42.668Z,77.40
2023-03-03T09:43:43.416Z,77.74
2023-03-03T09:46:29.599Z,78.59
2023-03-03T09:49:41.149Z,77.71
2023-03-03T09:52:40.535Z,75.74
2023-03-03T09:55:37.288Z,74.98
2023-03-03T09:58:36.060Z,74.41
2023-03-03T10:01:28.645Z,73.49
2023-03-03T10:04:37.055Z,74.42
2023-03-03T10:07:35.450Z,75.07
2023-03-03T10:10:47.012Z,71.16
2023-03-03T10:13:36.314Z,72.26
2023-03-03T10:17:02.091Z,71.58
2023-03-03T10:20:49.072Z,70.05
2023-03-03T10:23:54.024Z,72.52
2023-03-03T10:27:14.513Z,70.72
2023-03-03T10:30:46.180Z,70.30
2023-03-03T10:34:10.277Z,68.91
2023-03-03T10:37:15.487Z,69.25
2023-03-03T10:40:05.785Z,69.25
2023-03-03T10:43:35.030Z,71.66
2023-03-03T10:46:57.786Z,70.70
2023-03-03T10:49:56.745Z,68.09
2023-03-03T10:52:55.299Z,67.18
2023-03-03T10:55:46.587Z,67.86
2023-03-03T10:58:56.238Z,68.00
2023-03-03T11:01:48.749Z,68.32
2023-03-03T11:04:41.483Z,68.08
2023-03-03T11:07:36.434Z,67.01
2023-03-03T11:10:44.719Z,64.51
2023-03-03T11:13:37.385Z,62.26
2023-03-03T11:16:48.754Z,63.21
2023-03-03T11:20:02.878Z,60.20
2023-03-03T11:22:54.491Z,58.60
2023-03-03T11:25:49.767Z,57.67
2023-03-03T11:28:51.328Z,57.35
2023-03-03T11:31:46.876Z,56.66
2023-03-03T11:34:39.733Z,56.59
2023-03-03T11:37:46.395Z,58.40
2023-03-03T11:40:51.117Z,57.51
2023-03-03T11:43:43.647Z,58.95
2023-03-03T11:46:43.590Z,56.14
2023-03-03T11:49:51.874Z,55.73
2023-03-03T11:53:03.126Z,56.24
2023-03-03T11:55:57.137Z,58.18
2023-03-03T11:59:05.241Z,57.23
2023-03-03T12:01:59.989Z,54.51
2023-03-03T12:04:56.169Z,53.55
2023-03-03T12:08:15.232Z,54.46
2023-03-03T12:11:23.477Z,55.06
2023-03-03T12:14:09.557Z,53.99
2023-03-03T12:17:21.351Z,54.17
2023-03-03T12:20:07.511Z,55.18
2023-03-03T12:23:15.429Z,55.35
2023-03-03T12:26:32.959Z,54.42
2023-03-03T12:29:25.944Z,54.59
2023-03-03T12:32:35.304Z,55.53
2023-03-03T12:35:50.521Z,55.25
2023-03-03T12:38:56.030Z,55.10
2023-03-03T12:41:45.324Z,54.68
2023-03-03T12:44:46.914Z,53.27
2023-03-03T12:47:41.109Z,52.66
2023-03-03T12:50:43.232Z,52.77
2023-03-03T12:54:07.399Z,53.25
2023-03-03T12:57:21.934Z,52.27
2023-03-03T13:00:11.098Z,51.71
2023-03-03T13:03:17.805Z,50.96
2023-03-03T13:06:38.798Z,50.51
2023-03-03T13:09:53.725Z,51.14
2023-03-03T13:12:47.340Z,51.39
2023-03-03T13:16:06.852Z,51.00
2023-03-03T13:18:53.376Z,51.43
2023-03-03T13:21:59.753Z,51.49
2023-03-03T13:24:55.593Z,52.31
2023-03-03T13:27:45.449Z,52.12
2023-03-03T13:30:35.448Z,50.82
2023-03-03T13:33:32.380Z,49.96
2023-03-03T13:36:19.448Z,49.05
2023-03-03T13:39:23.948Z,49.49
2023-03-03T13:42:36.648Z,48.96
2023-03-03T13:45:35.178Z,49.71
2023-03-03T13:48:51.904Z,50.13
2023-03-03T13:51:46.420Z,49.47
2023-03-03T13:54:51.503Z,50.23
2023-03-03T13:58:01.570Z,50.65
2023-03-03T14:01:15.199Z,50.52
2023-03-03T14:04:13.443Z,50.67
2023-03-03T14:07:19.803Z,51.24
2023-03-03T14:10:35.199Z,50.60
2023-03-03T14:13:55.675Z,51.68
2023-03-03T14:16:57.165Z,52.45
2023-03-03T14:19:48.082Z,52.47
2023-03-03T14:23:22.375Z,52.72
2023-03-03T14:26:11.446Z,54.24
2023-03-03T14:29:24.334Z,54.44
2023-03-03T14:32:43.211Z,54.37
2023-03-03T14:35:40.193Z,55.57
2023-03-03T14:38:32.620Z,55.31
2023-03-03T14:41:22.072Z,54.86
2023-03-03T14:44:20.578Z,54.84
2023-03-03T14:47:10.270Z,54.81
2023-03-03T14:50:03.007Z,55.51
2023-03-03T14:53:06.137Z,56.06
2023-03-03T14:55:53.271Z,56.06
2023-03-03T14:58:41.957Z,56.50
2023-03-03T15:01:36.127Z,55.88
2023-03-03T15:04:28.420Z,56.23
2023-03-03T15:07:37.216Z,54.95
2023-03-03T15:10:33.100Z,55.40
2023-03-03T15:13:19.200Z,56.27
2023-03-03T15:16:18.030Z,55.87
2023-03-03T15:19:16.498Z,56.39
2023-03-03T15:22:29.769Z,56.02
2023-03-03T15:25:24.144Z,56.15
2023-03-03T15:28:50.679Z,56.61
2023-03-03T15:32:13.920Z,57.05
2023-03-03T15:35:27.961Z,56.18
2023-03-03T15:38:20.299Z,56.80
2023-03-03T15:41:25.235Z,57.60
2023-03-03T15:44:19.939Z,57.21
2023-03-03T15:47:34.448Z,56.57
2023-03-03T15:50:28.349Z,56.55
2023-03-03T15:53:31.433Z,56.68
2023-03-03T15:56:20.990Z,57.59
2023-03-03T15:59:26.353Z,57.15
2023-03-03T16:02:18.139Z,57.68
2023-03-03T16:05:37.182Z,57.77
2023-03-03T16:08:32.799Z,58.21
2023-03-03T16:11:31.992Z,58.41
2023-03-03T16:14:21.346Z,59.08
2023-03-03T16:17:35.730Z,58.67
2023-03-03T16:20:25.251Z,58.87
2023-03-03T16:23:11.405Z,58.82
2023-03-03T16:26:10.901Z,59.40
2023-03-03T16:29:23.395Z,59.57
2023-03-03T16:32:28.874Z,59.72
2023-03-03T16:35:30.261Z,59.58
2023-03-03T16:38:24.335Z,59.97
2023-03-03T16:41:33.642Z,61.63
2023-03-03T16:44:31.608Z,63.19
2023-03-03T16:47:36.891Z,64.30
2023-03-03T16:50:45.676Z,64.93
2023-03-03T16:53:43.957Z,65.96
2023-03-03T16:56:52.569Z,66.68
2023-03-03T16:59:50.585Z,67.62
2023-03-03T17:02:46.439Z,68.38
2023-03-03T17:05:42.327Z,69.39
2023-03-03T17:08:31.795Z,70.67
2023-03-03T17:11:27.339Z,71.20
2023-03-03T17:14:13.940Z,71.99
2023-03-03T17:17:07.798Z,73.37
2023-03-03T17:20:15.493Z,73.84
2023-03-03T17:23:07.997Z,75.38
2023-03-03T17:26:17.742Z,75.85
2023-03-03T17:29:45.715Z,76.54
2023-03-03T17:32:50.312Z,77.55
2023-03-03T17:36:12.503Z,78.98
2023-03-03T17:39:26.811Z,79.44
2023-03-03T17:42:34.581Z,79.64
2023-03-03T17:45:24.053Z,80.59
2023-03-03T17:48:31.683Z,80.60
2023-03-03T17:51:45.061Z,81.86
2023-03-03T17:54:34.184Z,82.04
2023-03-03T17:57:26.706Z,83.26
2023-03-03T18:00:50.794Z,83.92
2023-03-03T18:03:43.280Z,84.69
2023-03-03T18:06:39.810Z,84.75
2023-03-03T18:09:41.475Z,84.93
2023-03-03T18:12:52.844Z,86.49
2023-03-03T18:16:12.644Z,89.61
2023-03-03T18:18:59.156Z,91.99
2023-03-03T18:21:48.366Z,92.06
2023-03-03T18:24:53.465Z,92.88
2023-03-03T18:27:44.286Z,92.34
2023-03-03T18:30:51.240Z,92.32
2023-03-03T18:33:56.364Z,94.34
2023-03-03T18:36:55.077Z,95.55
2023-03-03T18:40:13.494Z,97.23
2023-03-03T18:43:38.342Z,99.38
2023-03-03T18:46:25.014Z,100.00
2023-03-03T18:49:12.628Z,100.00
2023-03-03T18:52:30.715Z,100.00
2023-03-03T18:55:16.941Z,100.00
2023-03-03T18:58:15.667Z,100.00
2023-03-03T19:01:10.245Z,100.00
2023-03-03T19:04:11.902Z,100.00
2023-03-03T19:07:08.549Z,100.00
2023-03-03T19:09:57.481Z,100.00
2023-03-03T19:12:55.410Z,100.00
2023-03-03T19:15:44.506Z,100.00
2023-03-03T19:18:42.846Z,100.00
2023-03-03T19:21:35.393Z,100.00
2023-03-03T19:24:28.226Z,100.00
2023-03-03T19:27:35.537Z,100.00
2023-03-03T19:31:05.971Z,100.00
2023-03-03T19:33:54.583Z,100.00
2023-03-03T19:37:01.290Z,100.00
2023-03-03T19:40:18.943Z,100.00
2023-03-03T19:43:21.703Z,100.00
2023-03-03T19:46:19.949Z,100.00
2023-03-03T19:49:27.403Z,100.00
2023-03-03T19:52:42.159Z,100.00
2023-03-03T19:55:53.186Z,100.00
2023-03-03T19:59:01.295Z,100.00
2023-03-03T20:01:53.057Z,100.00
2023-03-03T20:05:03.993Z,100.00
2023-03-03T20:08:37.903Z,100.00
2023-03-03T20:11:48.383Z,100.00
2023-03-03T20:14:51.901Z,100.00
2023-03-03T20:17:54.644Z,100.00
2023-03-03T20:21:06.731Z,100.00
2023-03-03T20:24:18.108Z,100.00
2023-03-03T20:27:24.134Z,100.00
2023-03-03T20:30:28.719Z,100.00
2023-03-03T20:33:36.384Z,100.00
2023-03-03T20:36:35.788Z,100.00
2023-03-03T20:39:42.155Z,100.00
2023-03-03T20:42:45.051Z,100.00
2023-03-03T20:45:45.500Z,100.00
2023-03-03T20:49:17.066Z,100.00
2023-03-03T20:52:11.922Z,100.00
2023-03-03T20:54:58.207Z,100.00
2023-03-03T20:57:57.939Z,100.00
2023-03-03T21:01:08.596Z,100.00
2023-03-03T21:04:15.261Z,100.00
2023-03-03T21:07:03.406Z,100.00
2023-03-03T21:09:49.732Z,100.00
2023-03-03T21:12:36.089Z,100.00
2023-03-03T21:15:27.422Z,100.00
2023-03-03T21:18:22.757Z,100.00
2023-03-03T21:21:09.500Z,100.00
2023-03-03T21:23:56.784Z,100.00
2023-03-03T21:26:52.579Z,100.00
2023-03-03T21:29:38.896Z,100.00
2023-03-03T21:32:39.431Z,100.00
2023-03-03T21:35:25.864Z,100.00
2023-03-03T21:38:32.421Z,100.00
2023-03-03T21:41:19.444Z,100.00
2023-03-03T21:44:33.642Z,100.00
2023-03-03T21:47:27.228Z,100.00
2023-03-03T21:50:13.885Z,100.00
2023-03-03T21:53:00.159Z,100.00
2023-03-03T21:55:49.556Z,100.00
2023-03-03T21:58:37.776Z,100.00
2023-03-03T22:01:24.565Z,100.00
2023-03-03T22:04:10.844Z,100.00
2023-03-03T22:06:57.294Z,100.00
2023-03-03T22:09:43.650Z,100.00
2023-03-03T22:12:29.986Z,100.00
2023-03-03T22:15:16.375Z,100.00
2023-03-03T22:18:02.602Z,100.00
2023-03-03T22:20:50.507Z,100.00
2023-03-03T22:23:37.142Z,100.00
2023-03-03T22:26:23.321Z,100.00
2023-03-03T22:29:10.357Z,100.00
2023-03-03T22:31:56.702Z,100.00
2023-03-03T22:34:43.365Z,100.00
2023-03-03T22:37:29.566Z,100.00
2023-03-03T22:40:16.534Z,100.00
2023-03-03T22:43:02.992Z,100.00
2023-03-03T22:45:50.492Z,100.00
2023-03-03T22:48:37.978Z,100.00
2023-03-03T22:51:26.139Z,100.00
2023-03-03T22:54:12.562Z,100.00
2023-03-03T22:56:58.903Z,100.00
2023-03-03T22:59:45.184Z,100.00
2023-03-03T23:02:31.617Z,100.00
2023-03-03T23:05:18.005Z,100.00
2023-03-03T23:08:07.754Z,100.00
2023-03-03T23:10:53.945Z,100.00
2023-03-03T23:13:40.663Z,100.00
2023-03-03T23:16:27.107Z,100.00
2023-03-03T23:19:13.671Z,100.00
2023-03-03T23:21:59.803Z,100.00
2023-03-03T23:24:46.336Z,100.00
2023-03-03T23:27:32.830Z,100.00
2023-03-03T23:30:21.251Z,100.00
2023-03-03T23:33:08.339Z,100.00
2023-03-03T23:35:54.475Z,100.00
2023-03-03T23:38:43.101Z,100.00
2023-03-03T23:41:29.816Z,100.00
2023-03-03T23:44:16.299Z,100.00
2023-03-03T23:47:02.597Z,100.00
2023-03-03T23:49:48.877Z,100.00
2023-03-03T23:52:35.346Z,100.00
2023-03-03T23:55:21.540Z,100.00
2023-03-03T23:58:08.131Z,100.00
